sensor_id;sensor_type;location;lat;lon;timestamp;pressure;altitude;pressure_sealevel;temperature;humidity
30081;BME280;16902;50.816;12.828;2023-05-22T00:00:23;97752.53;;;12.35;100.00
30081;BME280;16902;50.816;12.828;2023-05-22T00:05:25;97751.66;;;12.28;100.00
30081;BME280;16902;50.816;12.828;2023-05-22T00:10:26;97737.34;;;12.17;100.00
30081;BME280;16902;50.816;12.828;2023-05-22T00:15:28;97734.69;;;12.11;100.00
30081;BME280;16902;50.816;12.828;2023-05-22T00:20:30;97737.31;;;12.11;100.00
30081;BME280;16902;50.816;12.828;2023-05-22T00:25:31;97733.69;;;12.12;100.00
30081;BME280;16902;50.816;12.828;2023-05-22T00:30:33;97731.66;;;12.07;100.00
30081;BME280;16902;50.816;12.828;2023-05-22T00:35:35;97727.19;;;12.01;100.00
30081;BME280;16902;50.816;12.828;2023-05-22T00:40:37;97726.41;;;12.00;100.00
30081;BME280;16902;50.816;12.828;2023-05-22T00:45:39;97729.63;;;12.02;100.00
30081;BME280;16902;50.816;12.828;2023-05-22T00:50:41;97725.72;;;11.92;100.00
30081;BME280;16902;50.816;12.828;2023-05-22T00:55:43;97714.63;;;11.83;100.00
30081;BME280;16902;50.816;12.828;2023-05-22T01:00:46;97711.53;;;11.79;100.00
30081;BME280;16902;50.816;12.828;2023-05-22T01:05:49;97719.19;;;11.81;100.00
30081;BME280;16902;50.816;12.828;2023-05-22T01:10:57;97706.03;;;11.89;100.00
30081;BME280;16902;50.816;12.828;2023-05-22T01:16:14;97704.25;;;11.90;100.00
30081;BME280;16902;50.816;12.828;2023-05-22T01:21:39;97705.06;;;11.90;100.00
30081;BME280;16902;50.816;12.828;2023-05-22T01:32:30;97703.19;;;11.84;100.00
30081;BME280;16902;50.816;12.828;2023-05-22T01:37:33;97709.66;;;11.67;100.00
30081;BME280;16902;50.816;12.828;2023-05-22T01:42:37;97707.91;;;11.52;100.00
30081;BME280;16902;50.816;12.828;2023-05-22T01:47:42;97708.59;;;11.40;100.00
30081;BME280;16902;50.816;12.828;2023-05-22T02:03:23;97716.28;;;11.48;100.00
30081;BME280;16902;50.816;12.828;2023-05-22T02:08:28;97704.97;;;11.41;100.00
30081;BME280;16902;50.816;12.828;2023-05-22T02:13:32;97703.81;;;11.43;100.00
30081;BME280;16902;50.816;12.828;2023-05-22T02:18:34;97704.63;;;11.44;100.00
30081;BME280;16902;50.816;12.828;2023-05-22T02:23:36;97704.81;;;11.42;100.00
30081;BME280;16902;50.816;12.828;2023-05-22T02:28:38;97702.19;;;11.42;100.00
30081;BME280;16902;50.816;12.828;2023-05-22T02:33:43;97693.50;;;11.56;100.00
30081;BME280;16902;50.816;12.828;2023-05-22T02:38:45;97693.88;;;11.53;100.00
30081;BME280;16902;50.816;12.828;2023-05-22T02:43:47;97692.72;;;11.56;100.00
30081;BME280;16902;50.816;12.828;2023-05-22T02:48:49;97688.28;;;11.56;100.00
30081;BME280;16902;50.816;12.828;2023-05-22T02:53:52;97684.44;;;11.52;100.00
30081;BME280;16902;50.816;12.828;2023-05-22T02:58:54;97687.38;;;11.43;100.00
30081;BME280;16902;50.816;12.828;2023-05-22T03:03:57;97681.03;;;11.30;100.00
30081;BME280;16902;50.816;12.828;2023-05-22T03:08:58;97687.19;;;11.23;100.00
30081;BME280;16902;50.816;12.828;2023-05-22T03:14:00;97683.81;;;11.29;100.00
30081;BME280;16902;50.816;12.828;2023-05-22T03:19:09;97679.16;;;11.24;100.00
30081;BME280;16902;50.816;12.828;2023-05-22T03:24:11;97682.31;;;11.20;100.00
30081;BME280;16902;50.816;12.828;2023-05-22T03:29:13;97683.75;;;11.44;100.00
30081;BME280;16902;50.816;12.828;2023-05-22T03:34:16;97672.97;;;11.47;100.00
30081;BME280;16902;50.816;12.828;2023-05-22T03:39:21;97676.53;;;11.46;100.00
30081;BME280;16902;50.816;12.828;2023-05-22T03:44:29;97673.13;;;11.45;100.00
30081;BME280;16902;50.816;12.828;2023-05-22T03:49:31;97659.97;;;11.53;100.00
30081;BME280;16902;50.816;12.828;2023-05-22T03:54:33;97664.28;;;11.61;100.00
30081;BME280;16902;50.816;12.828;2023-05-22T03:59:36;97664.13;;;11.69;100.00
30081;BME280;16902;50.816;12.828;2023-05-22T04:04:38;97666.16;;;11.74;100.00
30081;BME280;16902;50.816;12.828;2023-05-22T04:09:40;97669.47;;;11.82;100.00
30081;BME280;16902;50.816;12.828;2023-05-22T04:14:42;97665.91;;;11.90;100.00
30081;BME280;16902;50.816;12.828;2023-05-22T04:19:43;97669.91;;;12.14;100.00
30081;BME280;16902;50.816;12.828;2023-05-22T04:24:45;97673.34;;;12.28;100.00
30081;BME280;16902;50.816;12.828;2023-05-22T04:29:49;97677.66;;;12.42;100.00
30081;BME280;16902;50.816;12.828;2023-05-22T04:34:51;97674.19;;;12.70;100.00
30081;BME280;16902;50.816;12.828;2023-05-22T04:39:53;97670.06;;;13.02;100.00
30081;BME280;16902;50.816;12.828;2023-05-22T04:44:59;97669.75;;;13.25;100.00
30081;BME280;16902;50.816;12.828;2023-05-22T04:50:01;97673.59;;;13.42;100.00
30081;BME280;16902;50.816;12.828;2023-05-22T04:55:03;97674.19;;;13.57;100.00
30081;BME280;16902;50.816;12.828;2023-05-22T05:00:07;97665.97;;;13.74;100.00
30081;BME280;16902;50.816;12.828;2023-05-22T05:05:11;97669.38;;;13.94;100.00
30081;BME280;16902;50.816;12.828;2023-05-22T05:10:13;97670.91;;;14.28;100.00
30081;BME280;16902;50.816;12.828;2023-05-22T05:15:15;97673.03;;;14.71;100.00
30081;BME280;16902;50.816;12.828;2023-05-22T05:20:17;97672.75;;;15.24;100.00
30081;BME280;16902;50.816;12.828;2023-05-22T05:25:19;97678.59;;;15.58;100.00
30081;BME280;16902;50.816;12.828;2023-05-22T05:30:21;97674.09;;;15.90;100.00
30081;BME280;16902;50.816;12.828;2023-05-22T05:35:39;97683.94;;;16.19;100.00
30081;BME280;16902;50.816;12.828;2023-05-22T05:40:46;97687.38;;;16.38;100.00
30081;BME280;16902;50.816;12.828;2023-05-22T05:45:49;97691.63;;;16.58;100.00
30081;BME280;16902;50.816;12.828;2023-05-22T05:50:51;97682.53;;;16.79;100.00
30081;BME280;16902;50.816;12.828;2023-05-22T05:55:53;97679.78;;;17.04;100.00
30081;BME280;16902;50.816;12.828;2023-05-22T06:00:57;97689.63;;;17.50;100.00
30081;BME280;16902;50.816;12.828;2023-05-22T06:05:59;97684.56;;;17.79;100.00
30081;BME280;16902;50.816;12.828;2023-05-22T06:11:27;97688.50;;;18.00;100.00
30081;BME280;16902;50.816;12.828;2023-05-22T06:16:29;97681.72;;;18.15;100.00
30081;BME280;16902;50.816;12.828;2023-05-22T06:21:31;97685.59;;;18.36;100.00
30081;BME280;16902;50.816;12.828;2023-05-22T06:26:33;97679.72;;;18.58;100.00
30081;BME280;16902;50.816;12.828;2023-05-22T06:31:35;97682.25;;;18.76;100.00
30081;BME280;16902;50.816;12.828;2023-05-22T06:36:39;97673.13;;;18.95;100.00
30081;BME280;16902;50.816;12.828;2023-05-22T06:41:43;97673.69;;;19.14;100.00
30081;BME280;16902;50.816;12.828;2023-05-22T06:46:47;97682.81;;;19.35;100.00
30081;BME280;16902;50.816;12.828;2023-05-22T06:51:55;97681.31;;;19.56;100.00
30081;BME280;16902;50.816;12.828;2023-05-22T06:56:57;97681.09;;;19.74;100.00
30081;BME280;16902;50.816;12.828;2023-05-22T07:02:01;97677.72;;;19.96;100.00
30081;BME280;16902;50.816;12.828;2023-05-22T07:07:10;97680.19;;;20.19;100.00
30081;BME280;16902;50.816;12.828;2023-05-22T07:12:13;97682.75;;;20.14;100.00
30081;BME280;16902;50.816;12.828;2023-05-22T07:17:15;97679.66;;;20.39;100.00
30081;BME280;16902;50.816;12.828;2023-05-22T07:22:18;97678.19;;;20.65;100.00
30081;BME280;16902;50.816;12.828;2023-05-22T07:27:21;97677.84;;;20.62;100.00
30081;BME280;16902;50.816;12.828;2023-05-22T07:32:23;97675.31;;;20.94;100.00
30081;BME280;16902;50.816;12.828;2023-05-22T07:37:28;97672.84;;;21.63;100.00
30081;BME280;16902;50.816;12.828;2023-05-22T07:42:31;97667.75;;;21.94;100.00
30081;BME280;16902;50.816;12.828;2023-05-22T07:47:32;97667.44;;;22.22;100.00
30081;BME280;16902;50.816;12.828;2023-05-22T07:52:34;97664.47;;;22.71;100.00
30081;BME280;16902;50.816;12.828;2023-05-22T07:57:38;97668.09;;;23.18;100.00
30081;BME280;16902;50.816;12.828;2023-05-22T08:02:49;97660.72;;;22.62;100.00
30081;BME280;16902;50.816;12.828;2023-05-22T08:07:51;97660.47;;;22.64;100.00
30081;BME280;16902;50.816;12.828;2023-05-22T08:12:53;97658.50;;;23.06;100.00
30081;BME280;16902;50.816;12.828;2023-05-22T08:17:54;97655.47;;;22.77;100.00
30081;BME280;16902;50.816;12.828;2023-05-22T08:22:56;97658.16;;;22.82;100.00
30081;BME280;16902;50.816;12.828;2023-05-22T08:27:58;97647.91;;;23.06;100.00
30081;BME280;16902;50.816;12.828;2023-05-22T08:33:00;97650.84;;;23.36;100.00
30081;BME280;16902;50.816;12.828;2023-05-22T08:38:02;97654.75;;;22.92;100.00
30081;BME280;16902;50.816;12.828;2023-05-22T08:43:04;97645.47;;;23.10;100.00
30081;BME280;16902;50.816;12.828;2023-05-22T08:48:11;97646.03;;;23.02;100.00
30081;BME280;16902;50.816;12.828;2023-05-22T08:53:14;97643.09;;;23.08;100.00
30081;BME280;16902;50.816;12.828;2023-05-22T08:58:17;97637.28;;;23.22;100.00
30081;BME280;16902;50.816;12.828;2023-05-22T09:03:19;97636.78;;;23.71;100.00
30081;BME280;16902;50.816;12.828;2023-05-22T09:08:22;97635.63;;;24.28;100.00
30081;BME280;16902;50.816;12.828;2023-05-22T09:13:26;97625.34;;;24.71;100.00
30081;BME280;16902;50.816;12.828;2023-05-22T09:18:28;97630.09;;;24.79;100.00
30081;BME280;16902;50.816;12.828;2023-05-22T09:23:30;97618.25;;;25.45;100.00
30081;BME280;16902;50.816;12.828;2023-05-22T09:28:33;97616.53;;;25.25;100.00
30081;BME280;16902;50.816;12.828;2023-05-22T09:33:38;97612.00;;;25.25;100.00
30081;BME280;16902;50.816;12.828;2023-05-22T09:38:40;97607.38;;;24.97;100.00
30081;BME280;16902;50.816;12.828;2023-05-22T09:43:48;97614.81;;;24.95;100.00
30081;BME280;16902;50.816;12.828;2023-05-22T09:48:51;97608.66;;;25.44;100.00
30081;BME280;16902;50.816;12.828;2023-05-22T09:53:59;97607.03;;;25.43;100.00
30081;BME280;16902;50.816;12.828;2023-05-22T09:59:07;97605.75;;;25.69;100.00
30081;BME280;16902;50.816;12.828;2023-05-22T10:04:11;97602.53;;;25.77;100.00
30081;BME280;16902;50.816;12.828;2023-05-22T10:09:18;97596.53;;;25.56;100.00
30081;BME280;16902;50.816;12.828;2023-05-22T10:14:21;97604.72;;;25.36;100.00
30081;BME280;16902;50.816;12.828;2023-05-22T10:19:24;97597.31;;;25.57;100.00
30081;BME280;16902;50.816;12.828;2023-05-22T10:24:28;97596.59;;;25.17;100.00
30081;BME280;16902;50.816;12.828;2023-05-22T10:29:35;97584.34;;;26.27;100.00
30081;BME280;16902;50.816;12.828;2023-05-22T10:34:50;97592.94;;;25.71;100.00
30081;BME280;16902;50.816;12.828;2023-05-22T10:40:09;97585.44;;;25.78;100.00
30081;BME280;16902;50.816;12.828;2023-05-22T10:45:12;97584.13;;;25.42;100.00
30081;BME280;16902;50.816;12.828;2023-05-22T10:50:16;97590.38;;;25.61;100.00
30081;BME280;16902;50.816;12.828;2023-05-22T10:55:21;97574.06;;;25.97;100.00
30081;BME280;16902;50.816;12.828;2023-05-22T11:00:23;97570.28;;;25.98;100.00
30081;BME280;16902;50.816;12.828;2023-05-22T11:10:53;97578.28;;;27.02;100.00
30081;BME280;16902;50.816;12.828;2023-05-22T11:15:55;97573.72;;;27.08;100.00
30081;BME280;16902;50.816;12.828;2023-05-22T11:20:58;97572.03;;;26.55;100.00
30081;BME280;16902;50.816;12.828;2023-05-22T11:26:21;97564.34;;;25.48;100.00
30081;BME280;16902;50.816;12.828;2023-05-22T11:31:24;97563.13;;;25.01;100.00
30081;BME280;16902;50.816;12.828;2023-05-22T11:36:27;97563.84;;;25.46;100.00
30081;BME280;16902;50.816;12.828;2023-05-22T11:41:32;97559.31;;;27.04;100.00
30081;BME280;16902;50.816;12.828;2023-05-22T11:46:34;97558.06;;;27.80;100.00
30081;BME280;16902;50.816;12.828;2023-05-22T11:51:37;97554.06;;;28.47;100.00
30081;BME280;16902;50.816;12.828;2023-05-22T11:56:40;97558.16;;;29.48;99.27
30081;BME280;16902;50.816;12.828;2023-05-22T12:01:42;97560.19;;;30.96;100.00
30081;BME280;16902;50.816;12.828;2023-05-22T12:06:43;97556.00;;;30.29;87.32
30081;BME280;16902;50.816;12.828;2023-05-22T12:11:46;97551.25;;;30.17;85.37
30081;BME280;16902;50.816;12.828;2023-05-22T12:16:50;97543.06;;;30.23;83.46
30081;BME280;16902;50.816;12.828;2023-05-22T12:21:53;97538.13;;;30.16;78.62
30081;BME280;16902;50.816;12.828;2023-05-22T12:26:55;97541.63;;;29.23;87.52
30081;BME280;16902;50.816;12.828;2023-05-22T12:32:01;97526.13;;;27.98;91.51
30081;BME280;16902;50.816;12.828;2023-05-22T12:37:03;97532.59;;;28.10;100.00
30081;BME280;16902;50.816;12.828;2023-05-22T12:42:05;97528.44;;;27.90;100.00
30081;BME280;16902;50.816;12.828;2023-05-22T12:47:08;97523.66;;;28.15;99.82
30081;BME280;16902;50.816;12.828;2023-05-22T12:52:10;97535.84;;;28.71;99.45
30081;BME280;16902;50.816;12.828;2023-05-22T12:57:12;97526.81;;;29.03;87.65
30081;BME280;16902;50.816;12.828;2023-05-22T13:02:14;97531.59;;;30.00;89.42
30081;BME280;16902;50.816;12.828;2023-05-22T13:07:15;97519.66;;;30.14;79.30
30081;BME280;16902;50.816;12.828;2023-05-22T13:12:17;97516.84;;;30.97;73.25
30081;BME280;16902;50.816;12.828;2023-05-22T13:17:19;97512.28;;;32.72;63.58
30081;BME280;16902;50.816;12.828;2023-05-22T13:22:22;97510.75;;;31.53;59.85
30081;BME280;16902;50.816;12.828;2023-05-22T13:27:24;97508.59;;;32.97;58.37
30081;BME280;16902;50.816;12.828;2023-05-22T13:32:25;97510.25;;;34.05;54.11
30081;BME280;16902;50.816;12.828;2023-05-22T13:37:27;97503.31;;;34.44;50.77
30081;BME280;16902;50.816;12.828;2023-05-22T13:42:29;97497.75;;;36.90;43.30
30081;BME280;16902;50.816;12.828;2023-05-22T13:47:30;97507.31;;;33.61;48.07
30081;BME280;16902;50.816;12.828;2023-05-22T13:52:32;97492.97;;;34.46;45.63
30081;BME280;16902;50.816;12.828;2023-05-22T13:57:34;97490.81;;;35.08;45.91
30081;BME280;16902;50.816;12.828;2023-05-22T14:02:37;97484.69;;;37.65;38.28
30081;BME280;16902;50.816;12.828;2023-05-22T14:07:39;97477.25;;;35.52;40.99
30081;BME280;16902;50.816;12.828;2023-05-22T14:12:40;97470.88;;;35.60;43.70
30081;BME280;16902;50.816;12.828;2023-05-22T14:17:42;97465.19;;;37.13;40.31
30081;BME280;16902;50.816;12.828;2023-05-22T14:22:44;97471.06;;;36.38;39.72
30081;BME280;16902;50.816;12.828;2023-05-22T14:27:57;97455.00;;;32.96;48.85
30081;BME280;16902;50.816;12.828;2023-05-22T14:32:59;97452.34;;;35.31;43.13
30081;BME280;16902;50.816;12.828;2023-05-22T14:38:01;97451.44;;;35.90;41.60
30081;BME280;16902;50.816;12.828;2023-05-22T14:43:03;97453.88;;;33.42;49.52
30081;BME280;16902;50.816;12.828;2023-05-22T14:48:04;97438.63;;;33.25;51.80
30081;BME280;16902;50.816;12.828;2023-05-22T14:53:08;97435.94;;;33.13;49.47
30081;BME280;16902;50.816;12.828;2023-05-22T14:58:09;97429.91;;;30.50;56.85
30081;BME280;16902;50.816;12.828;2023-05-22T15:03:11;97428.41;;;29.26;63.50
30081;BME280;16902;50.816;12.828;2023-05-22T15:08:13;97415.50;;;30.11;57.67
30081;BME280;16902;50.816;12.828;2023-05-22T15:13:15;97422.47;;;30.90;50.70
30081;BME280;16902;50.816;12.828;2023-05-22T15:18:16;97417.72;;;30.09;55.16
30081;BME280;16902;50.816;12.828;2023-05-22T15:23:20;97413.59;;;28.98;59.61
30081;BME280;16902;50.816;12.828;2023-05-22T15:28:25;97401.00;;;30.12;56.37
30081;BME280;16902;50.816;12.828;2023-05-22T15:33:27;97398.00;;;28.55;66.27
30081;BME280;16902;50.816;12.828;2023-05-22T15:38:28;97390.56;;;30.02;56.30
30081;BME280;16902;50.816;12.828;2023-05-22T15:43:30;97380.88;;;29.18;57.37
30081;BME280;16902;50.816;12.828;2023-05-22T15:48:32;97380.50;;;28.80;57.71
30081;BME280;16902;50.816;12.828;2023-05-22T15:53:33;97376.00;;;28.66;63.51
30081;BME280;16902;50.816;12.828;2023-05-22T15:58:35;97369.63;;;26.71;77.53
30081;BME280;16902;50.816;12.828;2023-05-22T16:03:37;97368.50;;;26.39;86.43
30081;BME280;16902;50.816;12.828;2023-05-22T16:08:39;97367.03;;;25.53;88.72
30081;BME280;16902;50.816;12.828;2023-05-22T16:13:42;97365.09;;;25.40;81.48
30081;BME280;16902;50.816;12.828;2023-05-22T16:18:43;97363.28;;;25.11;85.13
30081;BME280;16902;50.816;12.828;2023-05-22T16:23:45;97370.69;;;25.14;82.80
30081;BME280;16902;50.816;12.828;2023-05-22T16:28:47;97355.47;;;24.91;97.72
30081;BME280;16902;50.816;12.828;2023-05-22T16:33:48;97360.75;;;24.67;100.00
30081;BME280;16902;50.816;12.828;2023-05-22T16:38:50;97352.78;;;24.67;100.00
30081;BME280;16902;50.816;12.828;2023-05-22T16:43:52;97355.97;;;24.93;100.00
30081;BME280;16902;50.816;12.828;2023-05-22T16:48:54;97353.97;;;24.79;100.00
30081;BME280;16902;50.816;12.828;2023-05-22T16:53:55;97343.00;;;24.86;100.00
30081;BME280;16902;50.816;12.828;2023-05-22T16:58:57;97353.19;;;24.79;100.00
30081;BME280;16902;50.816;12.828;2023-05-22T17:03:59;97353.91;;;24.84;100.00
30081;BME280;16902;50.816;12.828;2023-05-22T17:09:00;97351.84;;;24.52;100.00
30081;BME280;16902;50.816;12.828;2023-05-22T17:14:03;97350.16;;;24.22;100.00
30081;BME280;16902;50.816;12.828;2023-05-22T17:19:04;97353.78;;;23.97;100.00
30081;BME280;16902;50.816;12.828;2023-05-22T17:24:06;97354.88;;;23.42;100.00
30081;BME280;16902;50.816;12.828;2023-05-22T17:29:13;97353.38;;;23.10;100.00
30081;BME280;16902;50.816;12.828;2023-05-22T17:34:15;97356.06;;;22.84;100.00
30081;BME280;16902;50.816;12.828;2023-05-22T17:39:17;97355.03;;;22.55;100.00
30081;BME280;16902;50.816;12.828;2023-05-22T17:44:18;97357.94;;;22.28;100.00
30081;BME280;16902;50.816;12.828;2023-05-22T17:49:20;97359.75;;;22.07;100.00
30081;BME280;16902;50.816;12.828;2023-05-22T17:54:21;97363.97;;;21.83;100.00
30081;BME280;16902;50.816;12.828;2023-05-22T17:59:23;97361.00;;;21.64;100.00
30081;BME280;16902;50.816;12.828;2023-05-22T18:04:25;97352.97;;;21.38;100.00
30081;BME280;16902;50.816;12.828;2023-05-22T18:09:26;97354.16;;;21.20;100.00
30081;BME280;16902;50.816;12.828;2023-05-22T18:14:28;97365.44;;;21.00;100.00
30081;BME280;16902;50.816;12.828;2023-05-22T18:19:30;97369.28;;;20.77;100.00
30081;BME280;16902;50.816;12.828;2023-05-22T18:24:31;97369.53;;;20.44;100.00
30081;BME280;16902;50.816;12.828;2023-05-22T18:29:33;97362.09;;;20.41;100.00
30081;BME280;16902;50.816;12.828;2023-05-22T18:34:35;97360.00;;;20.43;100.00
30081;BME280;16902;50.816;12.828;2023-05-22T18:39:37;97362.25;;;20.29;100.00
30081;BME280;16902;50.816;12.828;2023-05-22T18:44:39;97363.97;;;20.13;100.00
30081;BME280;16902;50.816;12.828;2023-05-22T18:49:41;97367.75;;;19.95;100.00
30081;BME280;16902;50.816;12.828;2023-05-22T18:54:42;97372.03;;;19.74;100.00
30081;BME280;16902;50.816;12.828;2023-05-22T18:59:44;97385.06;;;19.59;100.00
30081;BME280;16902;50.816;12.828;2023-05-22T19:04:46;97377.97;;;19.43;100.00
30081;BME280;16902;50.816;12.828;2023-05-22T19:09:49;97375.34;;;19.21;100.00
30081;BME280;16902;50.816;12.828;2023-05-22T19:14:51;97380.50;;;19.11;100.00
30081;BME280;16902;50.816;12.828;2023-05-22T19:19:53;97380.09;;;19.02;100.00
30081;BME280;16902;50.816;12.828;2023-05-22T19:24:54;97400.41;;;19.40;100.00
30081;BME280;16902;50.816;12.828;2023-05-22T19:29:56;97429.84;;;19.71;100.00
30081;BME280;16902;50.816;12.828;2023-05-22T19:34:58;97423.66;;;19.60;100.00
30081;BME280;16902;50.816;12.828;2023-05-22T19:39:59;97424.22;;;19.45;100.00
30081;BME280;16902;50.816;12.828;2023-05-22T19:45:01;97433.88;;;19.57;100.00
30081;BME280;16902;50.816;12.828;2023-05-22T19:50:04;97442.59;;;19.57;100.00
30081;BME280;16902;50.816;12.828;2023-05-22T19:55:06;97446.81;;;19.36;100.00
30081;BME280;16902;50.816;12.828;2023-05-22T20:00:10;97442.13;;;19.05;100.00
30081;BME280;16902;50.816;12.828;2023-05-22T20:05:12;97445.09;;;18.91;100.00
30081;BME280;16902;50.816;12.828;2023-05-22T20:10:14;97450.84;;;18.88;100.00
30081;BME280;16902;50.816;12.828;2023-05-22T20:15:16;97451.81;;;18.82;100.00
30081;BME280;16902;50.816;12.828;2023-05-22T20:20:18;97458.31;;;18.91;100.00
30081;BME280;16902;50.816;12.828;2023-05-22T20:25:20;97454.22;;;18.84;100.00
30081;BME280;16902;50.816;12.828;2023-05-22T20:30:22;97450.97;;;18.48;100.00
30081;BME280;16902;50.816;12.828;2023-05-22T20:35:24;97436.94;;;18.14;100.00
30081;BME280;16902;50.816;12.828;2023-05-22T20:40:26;97426.75;;;17.65;100.00
30081;BME280;16902;50.816;12.828;2023-05-22T20:45:30;97424.06;;;17.25;100.00
30081;BME280;16902;50.816;12.828;2023-05-22T20:50:31;97428.44;;;17.08;100.00
30081;BME280;16902;50.816;12.828;2023-05-22T20:55:37;97420.75;;;17.06;100.00
30081;BME280;16902;50.816;12.828;2023-05-22T21:00:39;97420.41;;;16.91;100.00
30081;BME280;16902;50.816;12.828;2023-05-22T21:05:42;97421.19;;;16.91;100.00
30081;BME280;16902;50.816;12.828;2023-05-22T21:10:44;97437.66;;;17.10;100.00
30081;BME280;16902;50.816;12.828;2023-05-22T21:15:46;97459.06;;;17.26;100.00
30081;BME280;16902;50.816;12.828;2023-05-22T21:20:47;97467.78;;;17.26;100.00
30081;BME280;16902;50.816;12.828;2023-05-22T21:25:49;97471.88;;;17.10;100.00
30081;BME280;16902;50.816;12.828;2023-05-22T21:30:51;97459.19;;;17.07;100.00
30081;BME280;16902;50.816;12.828;2023-05-22T21:35:52;97461.56;;;17.20;100.00
30081;BME280;16902;50.816;12.828;2023-05-22T21:40:54;97454.03;;;17.12;100.00
30081;BME280;16902;50.816;12.828;2023-05-22T21:45:56;97458.41;;;17.07;100.00
30081;BME280;16902;50.816;12.828;2023-05-22T21:50:58;97439.09;;;16.59;100.00
30081;BME280;16902;50.816;12.828;2023-05-22T21:55:59;97415.22;;;16.19;100.00
30081;BME280;16902;50.816;12.828;2023-05-22T22:01:01;97425.88;;;15.76;100.00
30081;BME280;16902;50.816;12.828;2023-05-22T22:06:03;97476.31;;;15.59;100.00
30081;BME280;16902;50.816;12.828;2023-05-22T22:11:05;97495.75;;;15.33;100.00
30081;BME280;16902;50.816;12.828;2023-05-22T22:16:07;97480.31;;;15.00;100.00
30081;BME280;16902;50.816;12.828;2023-05-22T22:21:09;97485.59;;;14.94;100.00
30081;BME280;16902;50.816;12.828;2023-05-22T22:26:11;97495.34;;;14.86;100.00
30081;BME280;16902;50.816;12.828;2023-05-22T22:31:13;97490.72;;;14.82;100.00
30081;BME280;16902;50.816;12.828;2023-05-22T22:36:14;97485.38;;;14.70;100.00
30081;BME280;16902;50.816;12.828;2023-05-22T22:41:17;97487.00;;;14.64;100.00
30081;BME280;16902;50.816;12.828;2023-05-22T22:46:19;97475.22;;;14.49;100.00
30081;BME280;16902;50.816;12.828;2023-05-22T22:51:23;97459.16;;;14.38;100.00
30081;BME280;16902;50.816;12.828;2023-05-22T22:56:25;97472.63;;;14.42;100.00
30081;BME280;16902;50.816;12.828;2023-05-22T23:01:29;97460.19;;;14.31;100.00
30081;BME280;16902;50.816;12.828;2023-05-22T23:06:31;97458.63;;;14.23;100.00
30081;BME280;16902;50.816;12.828;2023-05-22T23:11:35;97459.56;;;14.35;100.00
30081;BME280;16902;50.816;12.828;2023-05-22T23:16:39;97477.72;;;14.30;100.00
30081;BME280;16902;50.816;12.828;2023-05-22T23:21:41;97475.72;;;14.26;100.00
30081;BME280;16902;50.816;12.828;2023-05-22T23:26:43;97478.56;;;14.24;100.00
30081;BME280;16902;50.816;12.828;2023-05-22T23:31:45;97470.78;;;14.11;100.00
30081;BME280;16902;50.816;12.828;2023-05-22T23:36:47;97467.97;;;14.12;100.00
30081;BME280;16902;50.816;12.828;2023-05-22T23:41:49;97463.53;;;14.06;100.00
30081;BME280;16902;50.816;12.828;2023-05-22T23:46:54;97456.69;;;14.12;100.00
30081;BME280;16902;50.816;12.828;2023-05-22T23:51:56;97465.19;;;14.01;100.00
30081;BME280;16902;50.816;12.828;2023-05-22T23:56:58;97468.19;;;14.04;100.00
